Rechercher aéroport 
image banner adimage banner adimage banner ad
image banner ad

CN02 - San Francisco Va Medical Center

Situé à San Francisco, United States

ICAO - CN02, IATA -

Données fournies par Airmate  

Information générale

Coordonnées: N37°47'1" W122°30'24"
Élévation : 350 feet MSL.
 
Voir autres Aéroports à California

Données opérationnelles

Special qualification required
Heure actuelle UTC:
Heure actuelle locale:
Météo à : KSFO - San Francisco Intl ( 22 km )
METAR: KSFO 270556Z VRB03KT 10SM FEW006 SCT200 17/12 A2996 RMK AO2 SLP143 T01670117 10239 20161 53016
TAF: KSFO 270525Z 2706/2812 29009KT P6SM FEW005 BKN100 FM271000 29006KT P6SM VCSH SCT008 SCT015 BKN100 TEMPO 2710/2714 BKN012 FM271600 28007KT P6SM FEW010 SCT100 SCT200 FM272100 31014KT P6SM SCT250 FM280500 31010KT P6SM FEW006 FM281000 30007KT P6SM FEW005 SCT012
Voir NOTAMs / SUP AIP / TFR affectant cet aéroport [VIEW]
Fréquences de communication: [VIEW]

Pistes:

Coordonnées de l'aéroport

Adresse: San Francisco United States

Vue satellite de CN02